Nearby METAR Reports

Sorted by Distance from Carson Valley Weather Station - Minden, Nevada

 

KMEV - Minden, Nevada, USA
Distance from station: SSW 3mi, 5km
Updated: Fri, 19-Aug-2022 12:35am PDT
Clear
Clear
 Wind from SE
Wind: SE 8 mph , 13 km/h
Temperature: 57°F , 14°C
Dew Point: 43°F , 6°C
Humidity: 59%
Barometer: 30.17 inHg , 1021.7 hPa
Clouds: Clear
Visibility: 10 miles , 16 km
2022/08/19 07:35 KMEV 190735Z AUTO 14007KT 10SM CLR 14/06 A3017 RMK AO2
KCXP - Carson City, Nevada, USA
Distance from station: N 10mi, 16km
Updated: Fri, 19-Aug-2022 12:35am PDT
Clear
Clear
 Wind from calm
Wind: Calm
Temperature: 63°F , 17°C
Dew Point: 48°F , 9°C
Humidity: 59%
Barometer: 30.18 inHg , 1022 hPa
Clouds: Clear
Visibility: 10 miles , 16 km
2022/08/19 07:35 KCXP 190735Z AUTO 00000KT 10SM CLR 17/09 A3018 RMK AO2
 
KTVL - South Lake Tahoe, California, USA
Distance from station: WSW 18mi, 29km
Updated: Thu, 18-Aug-2022 11:53pm PDT
Clear
Clear
 Wind from SW
Wind: SW 3 mph , 6 km/h
Temperature: 54°F , 12°C
Dew Point: 43°F , 6°C
Humidity: 67%
Barometer: 30.27 inHg , 1025.1 hPa
Clouds: Clear
Visibility: 10 miles , 16 km
2022/08/19 06:53 KTVL 190653Z AUTO 23003KT 10SM CLR 12/06 A3027 RMK AO2 SLP189 T01170056
KTRK - Truckee Tahoe, California, USA
Distance from station: NW 29mi, 46km
Updated: Fri, 19-Aug-2022 12:21am PDT
Clear
Clear
 Wind from calm
Wind: Calm
Temperature: 54°F , 12°C
Dew Point: 43°F , 6°C
Humidity: 67%
Barometer: 30.26 inHg , 1024.7 hPa
Clouds: Clear
Visibility: 10 miles , 16 km
2022/08/19 07:21 KTRK 190721Z AUTO 00000KT 10SM CLR 12/06 A3026 RMK AO2
 
KRNO - Reno, Nevada, USA
Distance from station: N 32mi, 51km
Updated: Thu, 18-Aug-2022 11:55pm PDT
Clear
Clear
 Wind from calm
Wind: Calm
Temperature: 68°F , 20°C
Dew Point: 52°F , 11°C
Humidity: 56%
Barometer: 30.15 inHg , 1021 hPa
Clouds: Clear
Visibility: 10 miles , 16 km
2022/08/19 06:55 KRNO 190655Z 00000KT 10SM CLR 20/11 A3015 RMK AO2 SLP156 T02000106
KRTS - Reno/Stead, Nevada, USA
Distance from station: NNW 44mi, 71km
Updated: Fri, 19-Aug-2022 12:35am PDT
Clear
Clear
 Wind from N
Wind: N 3 mph , 6 km/h
Temperature: 61°F , 16°C
Dew Point: 50°F , 10°C
Humidity: 68%
Barometer: 30.20 inHg , 1022.7 hPa
Clouds: Clear
Visibility: 10 miles , 16 km
2022/08/19 07:35 KRTS 190735Z AUTO 36003KT 10SM CLR 16/10 A3020 RMK AO2
 
KBAN - Bridgeport(Mcmwt, California, USA
Distance from station: SSE 49mi, 79km
Updated: Thu, 18-Aug-2022 11:52pm PDT
Clear
Clear
 Wind from calm
Wind: Calm
Temperature: 54°F , 12°C
Dew Point: 39°F , 4°C
Humidity: 58%
Barometer: 30.31 inHg , 1026.4 hPa
Clouds: Clear
Visibility: 10 miles , 16 km
2022/08/19 06:52 KBAN 190652Z AUTO 00000KT 10SM CLR 12/04 A3031 RMK AO2 SLP158 T01170044 $
KBLU - Emigrant Gap, California, USA
Distance from station: WNW 55mi, 89km
Updated: Thu, 18-Aug-2022 11:52pm PDT
Clear
Clear
 Wind from calm
Wind: Calm
Temperature: 72°F , 22°C
Dew Point: 45°F , 7°C
Humidity: 38%
Barometer: 30.21 inHg , 1023 hPa
Clouds: Clear
Visibility: 10 miles , 16 km
2022/08/19 06:52 KBLU 190652Z AUTO 00000KT 10SM CLR 22/07 A3021 RMK AO2 SLP114 T02170067
 
KPVF - Placerville, California, USA
Distance from station: WSW 60mi, 96km
Updated: Fri, 19-Aug-2022 12:35am PDT

 Wind from ENE
Wind: ENE 13 mph , 20 km/h
Temperature: 79°F , 26°C
Dew Point: 43°F , 6°C
Humidity: 28%
Barometer: 30.00 inHg , 1015.9 hPa
Visibility: 10 miles , 16 km
2022/08/19 07:35 KPVF 190735Z AUTO 07011KT 10SM 26/06 A3000 RMK AO1
KNFL - Fallon Nas, Nevada, USA
Distance from station: ENE 61mi, 97km
Updated: Thu, 18-Aug-2022 11:56pm PDT
Partly cloudy
Partly cloudy
 Wind from varies
Wind: varies 6 mph , 9 km/h
Temperature: 64°F , 18°C
Dew Point: 52°F , 11°C
Humidity: 64%
Barometer: 30.10 inHg , 1019.3 hPa
Clouds: Partly cloudy
Visibility: 10 miles , 16 km
Cloud details: Few Clouds 8000 ft
Few Clouds 12000 ft
Partly cloudy 25000 ft
2022/08/19 06:56 KNFL 190656Z VRB05KT 10SM FEW080 FEW120 SCT250 18/11 A3010 RMK AO2 SLP160 T01830106
 
KHTH - Hawthorne, Nevada, USA
Distance from station: ESE 68mi, 109km
Updated: Fri, 19-Aug-2022 12:35am PDT
Clear
Clear
 Wind from ESE
Wind: ESE 3 mph , 6 km/h
Temperature: 72°F , 22°C
Dew Point: 48°F , 9°C
Humidity: 44%
Barometer: 30.14 inHg , 1020.7 hPa
Clouds: Clear
Visibility: 10 miles , 16 km
2022/08/19 07:35 KHTH 190735Z AUTO 11003KT 10SM CLR 22/09 A3014 RMK A01
KGOO - Grass Valley, California, USA
Distance from station: W 70mi, 112km
Updated: Fri, 19-Aug-2022 12:35am PDT
Clear
Clear
 Wind from calm
Wind: Calm
Temperature: 79°F , 26°C
Dew Point: 48°F , 9°C
Humidity: 34%
Barometer: 30.02 inHg , 1016.6 hPa
Clouds: Clear
Visibility: 10 miles , 16 km
2022/08/19 07:35 KGOO 190735Z AUTO 00000KT 10SM CLR 26/09 A3002 RMK A01
 
KAUN - Auburn Muni, California, USA
Distance from station: W 73mi, 118km
Updated: Fri, 19-Aug-2022 12:35am PDT
Clear
Clear
 Wind from E
Wind: E 9 mph , 15 km/h
Temperature: 81°F , 27°C
Dew Point: 50°F , 10°C
Humidity: 34%
Barometer: 29.91 inHg , 1012.9 hPa
Clouds: Clear
Visibility: 10 miles , 16 km
2022/08/19 07:35 KAUN 190735Z AUTO 08008KT 10SM CLR 27/10 A2991 RMK A01
KO22 - Columbia, California, USA
Distance from station: SSW 79mi, 127km
Updated: Fri, 19-Aug-2022 12:35am PDT
Clear
Clear
 Wind from calm
Wind: Calm
Temperature: 72°F , 22°C
Dew Point: 50°F , 10°C
Humidity: 47%
Barometer: 29.94 inHg , 1013.9 hPa
Clouds: Clear
Visibility: 10 miles , 16 km
2022/08/19 07:35 KO22 190735Z AUTO 00000KT 10SM CLR 22/10 A2994 RMK A01
 
KLHM - Lincoln, California, USA
Distance from station: W 88mi, 141km
Updated: Fri, 19-Aug-2022 12:35am PDT
Clear
Clear
 Wind from SE
Wind: SE 8 mph , 13 km/h
Temperature: 77°F , 25°C
Dew Point: 50°F , 10°C
Humidity: 39%
Barometer: 29.81 inHg , 1009.5 hPa
Clouds: Clear
Visibility: 10 miles , 16 km
2022/08/19 07:35 KLHM 190735Z AUTO 14007KT 10SM CLR 25/10 A2981 RMK AO1
KBAB - Beale Afb/Marysv, California, USA
Distance from station: W 91mi, 147km
Updated: Thu, 18-Aug-2022 11:58pm PDT
Clear
Clear
 Wind from calm
Wind: Calm
Temperature: 75°F , 24°C
Dew Point: 52°F , 11°C
Humidity: 44%
Barometer: 29.80 inHg , 1009.1 hPa
Clouds: Clear
Visibility: 10 miles , 16 km
2022/08/19 06:58 KBAB 190658Z AUTO 00000KT 10SM CLR 24/11 A2980 RMK AO2 SLP093 T02380111 $
 
KMHR - Mather Field, California, USA
Distance from station: WSW 91mi, 147km
Updated: Fri, 19-Aug-2022 12:35am PDT
Clear
Clear
 Wind from SE
Wind: SE 8 mph , 13 km/h
Temperature: 64°F , 18°C
Dew Point: 50°F , 10°C
Humidity: 60%
Barometer: 29.82 inHg , 1009.8 hPa
Clouds: Clear
Visibility: 10 miles , 16 km
2022/08/19 07:35 KMHR 190735Z AUTO 13007KT 10SM CLR 18/10 A2982 RMK A01
KLOL - Lovelock, Nevada, USA
Distance from station: NE 94mi, 151km
Updated: Thu, 18-Aug-2022 11:53pm PDT
Clear
Clear
 Wind from E
Wind: E 3 mph , 6 km/h
Temperature: 66°F , 19°C
Dew Point: 55°F , 13°C
Humidity: 68%
Barometer: 30.09 inHg , 1019 hPa
Clouds: Clear
Visibility: 10 miles , 16 km
2022/08/19 06:53 KLOL 190653Z AUTO 08003KT 10SM CLR 19/13 A3009 RMK AO2 SLP154 T01890133
 
KMCC - Mcclellan Afb, California, USA
Distance from station: WSW 94mi, 151km
Updated: Fri, 19-Aug-2022 12:35am PDT
Clear
Clear
 Wind from SSE
Wind: SSE 8 mph , 13 km/h
Temperature: 72°F , 22°C
Dew Point: 52°F , 11°C
Humidity: 50%
Barometer: 29.82 inHg , 1009.8 hPa
Clouds: Clear
Visibility: 10 miles , 16 km
2022/08/19 07:35 KMCC 190735Z AUTO 15007KT 10SM CLR 22/11 A2982 RMK AO2
KMYV - Marysville, California, USA
Distance from station: W 99mi, 159km
Updated: Thu, 18-Aug-2022 11:53pm PDT
Clear
Clear
 Wind from SSE
Wind: SSE 10 mph , 17 km/h
Temperature: 75°F , 24°C
Dew Point: 54°F , 12°C
Humidity: 47%
Barometer: 29.81 inHg , 1009.5 hPa
Clouds: Clear
Visibility: 10 miles , 16 km
2022/08/19 06:53 KMYV 190653Z AUTO 16009KT 10SM CLR 24/12 A2981 RMK AO2 SLP097 T02440117 $
 
KSVE - Susanville Muni, California, USA
Distance from station: NNW 102mi, 164km
Updated: Fri, 19-Aug-2022 12:35am PDT
Mostly cloudy
Mostly cloudy
 Wind from NW
Wind: NW 3 mph , 6 km/h
Temperature: 64°F , 18°C
Dew Point: 50°F , 10°C
Humidity: 60%
Barometer: 30.14 inHg , 1020.7 hPa
Clouds: Mostly cloudy
Visibility: 10 miles , 16 km
Cloud details: Mostly cloudy 9000 ft
2022/08/19 07:35 KSVE 190735Z AUTO 32003KT 10SM BKN090 18/10 A3014 RMK AO2
KSAC - Sacramento, California, USA
Distance from station: WSW 103mi, 165km
Updated: Thu, 18-Aug-2022 11:53pm PDT
Clear
Clear
 Wind from SSE
Wind: SSE 5 mph , 7 km/h
Temperature: 70°F , 21°C
Dew Point: 55°F , 13°C
Humidity: 60%
Barometer: 29.83 inHg , 1010.2 hPa
Clouds: Clear
Visibility: 10 miles , 16 km
2022/08/19 06:53 KSAC 190653Z AUTO 15004KT 10SM CLR 21/13 A2983 RMK AO2 SLP102 T02110128
 
KSMF - Sacramento/Metro, California, USA
Distance from station: WSW 104mi, 167km
Updated: Thu, 18-Aug-2022 11:53pm PDT
Clear
Clear
 Wind from SE
Wind: SE 10 mph , 17 km/h
Temperature: 73°F , 23°C
Dew Point: 52°F , 11°C
Humidity: 47%
Barometer: 29.81 inHg , 1009.5 hPa
Clouds: Clear
Visibility: 10 miles , 16 km
2022/08/19 06:53 KSMF 190653Z 14009KT 10SM CLR 23/11 A2981 RMK AO2 SLP094 T02330111
KOVE - Oroville, California, USA
Distance from station: WNW 106mi, 171km
Updated: Thu, 18-Aug-2022 11:53pm PDT
Clear
Clear
 Wind from SSE
Wind: SSE 8 mph , 13 km/h
Temperature: 84°F , 29°C
Dew Point: 54°F , 12°C
Humidity: 35%
Barometer: 29.82 inHg , 1009.8 hPa
Clouds: Clear
Visibility: 10 miles , 16 km
2022/08/19 06:53 KOVE 190653Z AUTO 15007KT 10SM CLR 29/12 A2982 RMK AO2 SLP097 T02890117
 
KMMH - Mammoth/June Lak, California, USA
Distance from station: SSE 110mi, 177km
Updated: Fri, 19-Aug-2022 12:20am PDT
Clear
Clear
 Wind from W
Wind: W 9 mph , 15 km/h
Temperature: 59°F , 15°C
Dew Point: 41°F , 5°C
Humidity: 51%
Barometer: 30.35 inHg , 1027.8 hPa
Clouds: Clear
Visibility: 10 miles , 16 km
2022/08/19 07:20 KMMH 190720Z AUTO 28008KT 10SM CLR 15/05 A3035 RMK AO2
KSCK - Stockton, California, USA
Distance from station: SW 114mi, 183km
Updated: Thu, 18-Aug-2022 11:55pm PDT
Clear
Clear
 Wind from NNW
Wind: NNW 5 mph , 7 km/h
Temperature: 73°F , 23°C
Dew Point: 48°F , 9°C
Humidity: 41%
Barometer: 29.83 inHg , 1010.2 hPa
Clouds: Clear
Visibility: 10 miles , 16 km
2022/08/19 06:55 KSCK 190655Z AUTO 34004KT 10SM CLR 23/09 A2983 RMK AO2 SLP102 T02280094
 
KEDU - Davis, California, USA
Distance from station: WSW 116mi, 187km
Updated: Fri, 19-Aug-2022 12:40am PDT
Clear
Clear
 
Temperature: 64°F , 18°C
Dew Point: 55°F , 13°C
Humidity: 73%
Barometer: 29.82 inHg , 1009.8 hPa
Clouds: Clear
Visibility: 10 miles , 16 km
2022/08/19 07:40 KEDU 190740Z AUTO 10SM CLR 18/13 A2982 RMK AO1
KMOD - Modesto, California, USA
Distance from station: SW 119mi, 191km
Updated: Thu, 18-Aug-2022 11:53pm PDT
Clear
Clear
 Wind from N
Wind: N 8 mph , 13 km/h
Temperature: 79°F , 26°C
Dew Point: 46°F , 8°C
Humidity: 32%
Barometer: 29.82 inHg , 1009.8 hPa
Clouds: Clear
Visibility: 10 miles , 16 km
2022/08/19 06:53 KMOD 190653Z AUTO 36007KT 10SM CLR 26/08 A2982 RMK AO2 SLP096 T02560083 $
 
KMER - Merced/Castle Af, California, USA
Distance from station: SSW 123mi, 198km
Updated: Thu, 18-Aug-2022 11:55pm PDT
Clear
Clear
 Wind from N
Wind: N 8 mph , 13 km/h
Temperature: 79°F , 26°C
Dew Point: 39°F , 4°C
Humidity: 24%
Barometer: 29.82 inHg , 1009.8 hPa
Clouds: Clear
Visibility: 10 miles , 16 km
2022/08/19 06:55 KMER 190655Z AUTO 36007KT 10SM CLR 26/04 A2982 RMK AO1
KCIC - Chico Municipal, California, USA
Distance from station: WNW 124mi, 199km
Updated: Fri, 19-Aug-2022 12:35am PDT
Clear
Clear
 Wind from calm
Wind: Calm
Temperature: 86°F , 30°C
Dew Point: 50°F , 10°C
Humidity: 29%
Barometer: 29.82 inHg , 1009.8 hPa
Clouds: Clear
Visibility: 10 miles , 16 km
2022/08/19 07:35 KCIC 190735Z AUTO 00000KT 10SM CLR 30/10 A2982 RMK AO1
 
KMCE - Merced, California, USA
Distance from station: SSW 128mi, 207km
Updated: Thu, 18-Aug-2022 11:53pm PDT
Clear
Clear
 Wind from N
Wind: N 12 mph , 19 km/h
Temperature: 81°F , 27°C
Dew Point: 46°F , 8°C
Humidity: 30%
Barometer: 29.81 inHg , 1009.5 hPa
Clouds: Clear
Visibility: 10 miles , 16 km
2022/08/19 06:53 KMCE 190653Z AUTO 36010KT 10SM CLR 27/08 A2981 RMK AO2 SLP093 T02670078
KVCB - Vacaville, California, USA
Distance from station: WSW 128mi, 207km
Updated: Thu, 18-Aug-2022 11:53pm PDT
Clear
Clear
 Wind from S
Wind: S 3 mph , 6 km/h
Temperature: 70°F , 21°C
Dew Point: 52°F , 11°C
Humidity: 53%
Barometer: 29.82 inHg , 1009.8 hPa
Clouds: Clear
Visibility: 10 miles , 16 km
2022/08/19 06:53 KVCB 190653Z AUTO 17003KT 10SM CLR 21/11 A2982 RMK AO2 SLP095 T02110111
 
KSUU - Travis Afb/Fairf, California, USA
Distance from station: WSW 130mi, 209km
Updated: Thu, 18-Aug-2022 11:58pm PDT
Clear
Clear
 Wind from SW
Wind: SW 23 mph , 37 km/h
Temperature: 64°F , 18°C
Dew Point: 55°F , 13°C
Humidity: 73%
Barometer: 29.81 inHg , 1009.5 hPa
Clouds: Clear
Visibility: 10 miles , 16 km
2022/08/19 06:58 KSUU 190658Z AUTO 22020KT 10SM CLR 18/13 A2981 RMK AO2 PK WND 26031/10 SLP101 T01760131 $
KBIH - Bishop, California, USA
Distance from station: SE 137mi, 221km
Updated: Thu, 18-Aug-2022 11:56pm PDT
Clear
Clear
 Wind from NNW
Wind: NNW 10 mph , 17 km/h
Temperature: 77°F , 25°C
Dew Point: 45°F , 7°C
Humidity: 32%
Barometer: 30.08 inHg , 1018.6 hPa
Clouds: Clear
Visibility: 10 miles , 16 km
2022/08/19 06:56 KBIH 190656Z AUTO 34009KT 10SM CLR 25/07 A3008 RMK AO2 SLP126 T02500067
 
KMAE - Madera, California, USA
Distance from station: S 144mi, 231km
Updated: Thu, 18-Aug-2022 11:53pm PDT
Clear
Clear
 Wind from NW
Wind: NW 13 mph , 20 km/h
Temperature: 82°F , 28°C
Dew Point: 46°F , 8°C
Humidity: 28%
Barometer: 29.81 inHg , 1009.5 hPa
Clouds: Clear
Visibility: 10 miles , 16 km
2022/08/19 06:53 KMAE 190653Z AUTO 31011KT 10SM CLR 28/08 A2981 RMK AO2 SLP092 T02830083
KCCR - Concord, California, USA
Distance from station: WSW 145mi, 233km
Updated: Thu, 18-Aug-2022 11:53pm PDT
Clear
Clear
 Wind from SSW
Wind: SSW 10 mph , 17 km/h
Temperature: 64°F , 18°C
Dew Point: 54°F , 12°C
Humidity: 68%
Barometer: 29.88 inHg , 1011.9 hPa
Clouds: Clear
Visibility: 10 miles , 16 km
2022/08/19 06:53 KCCR 190653Z AUTO 21009KT 10SM CLR 18/12 A2988 RMK AO2 SLP104 T01830122
 
KLVK - Livermore, California, USA
Distance from station: SW 146mi, 236km
Updated: Thu, 18-Aug-2022 11:53pm PDT
Clear
Clear
 Wind from WNW
Wind: WNW 8 mph , 13 km/h
Temperature: 63°F , 17°C
Dew Point: 55°F , 13°C
Humidity: 77%
Barometer: 29.90 inHg , 1012.5 hPa
Clouds: Clear
2022/08/19 06:53 KLVK 190653Z AUTO 30007KT CLR 17/13 A2990 RMK AO2 SLP121 T01670133 $
KAPC - Napa, California, USA
Distance from station: WSW 150mi, 241km
Updated: Thu, 18-Aug-2022 11:54pm PDT
Mostly cloudy
Mostly cloudy
 Wind from WSW
Wind: WSW 7 mph , 11 km/h
Temperature: 63°F , 17°C
Dew Point: 57°F , 14°C
Humidity: 83%
Barometer: 29.90 inHg , 1012.5 hPa
Clouds: Mostly cloudy
Visibility: 10 miles , 16 km
Cloud details: Mostly cloudy 800 ft
2022/08/19 06:54 KAPC 190654Z AUTO 24006KT 10SM BKN008 17/14 A2990 RMK AO2 SLP116 T01670144
 
KRBL - Red Bluff, California, USA
Distance from station: WNW 155mi, 249km
Updated: Thu, 18-Aug-2022 11:54pm PDT
Clear
Clear
 Wind from W
Wind: W 6 mph , 9 km/h
Temperature: 90°F , 32°C
Dew Point: 52°F , 11°C
Humidity: 27%
Barometer: 29.82 inHg , 1009.8 hPa
Clouds: Clear
Visibility: 10 miles , 16 km
2022/08/19 06:54 KRBL 190654Z AUTO 28005KT 10SM CLR 32/11 A2982 RMK AO2 SLP092 T03170111
KFAT - Fresno, California, USA
Distance from station: S 156mi, 251km
Updated: Thu, 18-Aug-2022 11:53pm PDT
Partly cloudy
Partly cloudy
 Wind from WNW
Wind: WNW 14 mph , 22 km/h
Temperature: 86°F , 30°C
Dew Point: 50°F , 10°C
Humidity: 29%
Barometer: 29.80 inHg , 1009.1 hPa
Clouds: Partly cloudy
Visibility: 10 miles , 16 km
Cloud details: Partly cloudy 20000 ft
2022/08/19 06:53 KFAT 190653Z 30012KT 10SM SCT200 30/10 A2980 RMK AO2 SLP088 T03000100
 
KTPH - Tonopah, Nevada, USA
Distance from station: ESE 158mi, 254km
Updated: Thu, 18-Aug-2022 11:56pm PDT
Clear
Clear
 Wind from N
Wind: N 9 mph , 15 km/h
Temperature: 72°F , 22°C
Dew Point: 43°F , 6°C
Humidity: 36%
Barometer: 30.19 inHg , 1022.4 hPa
Clouds: Clear
Visibility: 10 miles , 16 km
2022/08/19 06:56 KTPH 190656Z AUTO 35008KT 10SM CLR 22/06 A3019 RMK AO2 SLP140 T02170056
KFCH - Fresno Chandler, California, USA
Distance from station: S 161mi, 258km
Updated: Sun, 06-Mar-2022 2:40pm PST
NOT Current
Partly cloudy
Partly cloudy
 Wind from calm
Wind: Calm
Temperature: 57°F , 14°C
Dew Point: 36°F , 2°C
Humidity: 44%
Barometer: 30.26 inHg , 1024.7 hPa
Clouds: Partly cloudy
Visibility: 10 miles , 16 km
Cloud details: Partly cloudy 5000 ft
2022/03/06 22:40 KFCH 062240Z AUTO 00000KT 10SM SCT050 14/02 A3026 RMK A01
 
KHWD - Hayward, California, USA
Distance from station: SW 161mi, 259km
Updated: Thu, 18-Aug-2022 11:54pm PDT
Overcast
Overcast
 Wind from WNW
Wind: WNW 5 mph , 7 km/h
Temperature: 61°F , 16°C
Dew Point: 57°F , 14°C
Humidity: 88%
Barometer: 29.93 inHg , 1013.5 hPa
Clouds: Overcast
Visibility: 10 miles , 16 km
Cloud details: Overcast 700 ft
2022/08/19 06:54 KHWD 190654Z 30004KT 10SM OVC007 16/14 A2993 RMK AO2 SLP143 T01610139
KOAK - Oakland, California, USA
Distance from station: SW 164mi, 264km
Updated: Thu, 18-Aug-2022 11:53pm PDT
Mostly cloudy
Mostly cloudy
 Wind from SSW
Wind: SSW 10 mph , 17 km/h
Temperature: 61°F , 16°C
Dew Point: 57°F , 14°C
Humidity: 88%
Barometer: 29.93 inHg , 1013.5 hPa
Clouds: Mostly cloudy
Visibility: 10 miles , 16 km
Cloud details: Few Clouds 600 ft
Mostly cloudy 800 ft
2022/08/19 06:53 KOAK 190653Z 21009KT 10SM FEW006 BKN008 16/14 A2993 RMK AO2 SLP134 T01610139
 
KWMC - Winnemucca, Nevada, USA
Distance from station: NE 164mi, 264km
Updated: Thu, 18-Aug-2022 11:56pm PDT
Clear
Clear
 Wind from WNW
Wind: WNW 7 mph , 11 km/h
Temperature: 66°F , 19°C
Dew Point: 50°F , 10°C
Humidity: 56%
Barometer: 30.11 inHg , 1019.6 hPa
Clouds: Clear
Visibility: 10 miles , 16 km
2022/08/19 06:56 KWMC 190656Z AUTO 29006KT 10SM CLR 19/10 A3011 RMK AO2 SLP146 T01940100
KDVO - Novato/Gnoss Fld, California, USA
Distance from station: WSW 165mi, 265km
Updated: Fri, 19-Aug-2022 12:35am PDT
Mostly cloudy
Mostly cloudy
 Wind from calm
Wind: Calm
Temperature: 55°F , 13°C
Dew Point: 55°F , 13°C
Humidity: 100%
Barometer: 29.91 inHg , 1012.9 hPa
Clouds: Mostly cloudy
Visibility: 10 miles , 16 km
Cloud details: Mostly cloudy 500 ft
2022/08/19 07:35 KDVO 190735Z AUTO 00000KT 10SM BKN005 13/13 A2991 RMK AO2
 
KO69 - Petaluma, California, USA
Distance from station: WSW 165mi, 265km
Updated: Fri, 19-Aug-2022 12:35am PDT
Mist, Overcast
Mist, Overcast
 Wind from N
Wind: N 3 mph , 6 km/h
Temperature: 55°F , 13°C
Dew Point: 55°F , 13°C
Humidity: 100%
Barometer: 29.91 inHg , 1012.9 hPa
Summary: Mist
Clouds: Overcast
Visibility: 2 1/2 miles , 4 km
Cloud details: Overcast 300 ft
2022/08/19 07:35 KO69 190735Z AUTO 35003KT 2 1/2SM BR OVC003 13/13 A2991 RMK A01
KRHV - San Jose/Reid, California, USA
Distance from station: SW 165mi, 265km
Updated: Thu, 18-Aug-2022 9:55pm PDT
NOT Current
Clear
Clear
 Wind from W
Wind: W 5 mph , 7 km/h
Temperature: 66°F , 19°C
Dew Point: 57°F , 14°C
Humidity: 73%
Barometer: 29.95 inHg , 1014.2 hPa
Clouds: Clear
Visibility: 10 miles , 16 km
2022/08/19 04:55 KRHV 190455Z 28004KT 10SM SKC 19/14 A2995
 
KSJC - San Jose, California, USA
Distance from station: SW 166mi, 267km
Updated: Thu, 18-Aug-2022 11:53pm PDT
Few Clouds
Few Clouds
 Wind from NW
Wind: NW 5 mph , 7 km/h
Temperature: 63°F , 17°C
Dew Point: 57°F , 14°C
Humidity: 83%
Barometer: 29.93 inHg , 1013.5 hPa
Clouds: Few Clouds
Visibility: 10 miles , 16 km
Cloud details: Few Clouds 1100 ft
2022/08/19 06:53 KSJC 190653Z 32004KT 10SM FEW011 17/14 A2993 RMK AO2 SLP133 T01670144
KE16 - San Martin, California, USA
Distance from station: SW 169mi, 273km
Updated: Fri, 19-Aug-2022 12:35am PDT
Partly cloudy
Partly cloudy
 Wind from SSE
Wind: SSE 3 mph , 6 km/h
Temperature: 59°F , 15°C
Dew Point: 54°F , 12°C
Humidity: 82%
Barometer: 29.94 inHg , 1013.9 hPa
Clouds: Partly cloudy
Visibility: 10 miles , 16 km
Cloud details: Partly cloudy 4800 ft
2022/08/19 07:35 KE16 190735Z AUTO 15003KT 10SM SCT048 15/12 A2994 RMK AO2 PWINO PNO
 
KPAO - Palo Alto, California, USA
Distance from station: SW 169mi, 273km
Updated: Thu, 18-Aug-2022 8:47pm PDT
NOT Current
Clear
Clear
 Wind from NNW
Wind: NNW 6 mph , 9 km/h
Temperature: 63°F , 17°C
Dew Point: 57°F , 14°C
Humidity: 83%
Barometer: 29.94 inHg , 1013.9 hPa
Clouds: Clear
Visibility: 10 miles , 16 km
2022/08/19 03:47 KPAO 190347Z 33005KT 10SM SKC 17/14 A2994
KNUQ - Moffett Nas/Mtn, California, USA
Distance from station: SW 170mi, 273km
Updated: Fri, 19-Aug-2022 12:35am PDT
Overcast
Overcast
 Wind from NNE
Wind: NNE 5 mph , 7 km/h
Temperature: 63°F , 17°C
Dew Point: 59°F , 15°C
Humidity: 88%
Barometer: 29.92 inHg , 1013.2 hPa
Clouds: Overcast
Visibility: 10 miles , 16 km
Cloud details: Overcast 900 ft
2022/08/19 07:35 KNUQ 190735Z AUTO 03004KT 10SM OVC009 17/15 A2992 RMK AO2
 
KRDD - Redding, California, USA
Distance from station: NW 171mi, 275km
Updated: Thu, 18-Aug-2022 11:53pm PDT
Clear
Clear
 Wind from N
Wind: N 8 mph , 13 km/h
Temperature: 91°F , 33°C
Dew Point: 54°F , 12°C
Humidity: 28%
Barometer: 29.82 inHg , 1009.8 hPa
Clouds: Clear
Visibility: 10 miles , 16 km
2022/08/19 06:53 KRDD 190653Z AUTO 36007KT 10SM CLR 33/12 A2982 RMK AO2 SLP091 T03280122
KSTS - Santa Rosa, California, USA
Distance from station: WSW 171mi, 275km
Updated: Fri, 19-Aug-2022 12:39am PDT
Fog, Overcast
Fog, Overcast
 Wind from calm
Wind: Calm
Temperature: 55°F , 13°C
Dew Point: 55°F , 13°C
Humidity: 100%
Barometer: 29.90 inHg , 1012.5 hPa
Summary: Fog
Clouds: Overcast
Visibility: 1/2 mile , 0.8 km
Cloud details: Overcast 200 ft
2022/08/19 07:39 KSTS 190739Z AUTO 00000KT 1/2SM FG VV002 13/13 A2990 RMK AO2 T01280128
 
KSQL - San Carlos Airpo, California, USA
Distance from station: SW 173mi, 278km
Updated: Fri, 19-Aug-2022 12:35am PDT
Clear
Clear
 Wind from calm
Wind: Calm
Temperature: 63°F , 17°C
Dew Point: 57°F , 14°C
Humidity: 83%
Barometer: 29.93 inHg , 1013.5 hPa
Clouds: Clear
Visibility: 10 miles , 16 km
2022/08/19 07:35 KSQL 190735Z AUTO 00000KT 10SM CLR 17/14 A2993 RMK AO2
KCVH - Hollister Muni, California, USA
Distance from station: SSW 174mi, 280km
Updated: Fri, 19-Aug-2022 12:35am PDT
Clear
Clear
 Wind from calm
Wind: Calm
Temperature: 59°F , 15°C
Dew Point: 52°F , 11°C
Humidity: 77%
Barometer: 29.93 inHg , 1013.5 hPa
Clouds: Clear
Visibility: 10 miles , 16 km
2022/08/19 07:35 KCVH 190735Z AUTO 00000KT 10SM CLR 15/11 A2993 RMK A01
 
KSFO - San Francisco, California, USA
Distance from station: SW 174mi, 280km
Updated: Thu, 18-Aug-2022 11:56pm PDT
Partly cloudy
Partly cloudy
 Wind from WNW
Wind: WNW 6 mph , 9 km/h
Temperature: 61°F , 16°C
Dew Point: 55°F , 13°C
Humidity: 83%
Barometer: 29.92 inHg , 1013.2 hPa
Clouds: Partly cloudy
Visibility: 10 miles , 16 km
Cloud details: Few Clouds 400 ft
Partly cloudy 900 ft
2022/08/19 06:56 KSFO 190656Z 30005KT 10SM FEW004 SCT009 16/13 A2992 RMK AO2 SLP133 T01560133
KAAT - Alturas, California, USA
Distance from station: NNW 175mi, 281km
Updated: Thu, 18-Aug-2022 11:55pm PDT
Mostly cloudy
Mostly cloudy
 Wind from SSE
Wind: SSE 3 mph , 6 km/h
Temperature: 61°F , 16°C
Dew Point: 52°F , 11°C
Humidity: 72%
Barometer: 30.15 inHg , 1021 hPa
Clouds: Mostly cloudy
Visibility: 10 miles , 16 km
Cloud details: Mostly cloudy 11000 ft
2022/08/19 06:55 KAAT 190655Z AUTO 16003KT 10SM BKN110 16/11 A3015 RMK AO2 SLP173 T01560106
 
KBAM - Battle Mtn (vor), Nevada, USA
Distance from station: NE 182mi, 294km
Updated: Fri, 19-Aug-2022 12:35am PDT
Clear
Clear
 Wind from calm
Wind: Calm
Temperature: 63°F , 17°C
Dew Point: 52°F , 11°C
Humidity: 68%
Barometer: 30.13 inHg , 1020.3 hPa
Clouds: Clear
Visibility: 10 miles , 16 km
2022/08/19 07:35 KBAM 190735Z AUTO 00000KT 10SM CLR 17/11 A3013 RMK AO1
KHAF - Half Moon Bay, California, USA
Distance from station: SW 184mi, 296km
Updated: Fri, 19-Aug-2022 12:35am PDT
Mist, Overcast
Mist, Overcast
 Wind from NNW
Wind: NNW 6 mph , 9 km/h
Temperature: 57°F , 14°C
Dew Point: 57°F , 14°C
Humidity: 100%
Barometer: 29.95 inHg , 1014.2 hPa
Summary: Mist
Clouds: Overcast
Visibility: 3 miles , 5 km
Cloud details: Overcast 400 ft
2022/08/19 07:35 KHAF 190735Z AUTO 33005KT 3SM BR OVC004 14/14 A2995 RMK AO2
 
KWVI - Watsonville, California, USA
Distance from station: SW 184mi, 296km
Updated: Fri, 19-Aug-2022 12:03am PDT
Partly cloudy
Partly cloudy
 Wind from calm
Wind: Calm
Temperature: 55°F , 13°C
Dew Point: 55°F , 13°C
Humidity: 100%
Barometer: 29.93 inHg , 1013.5 hPa
Clouds: Partly cloudy
Visibility: 10 miles , 16 km
Cloud details: Partly cloudy 400 ft
2022/08/19 07:03 KWVI 190703Z AUTO 00000KT 10SM SCT004 13/13 A2993 RMK AO2 T01280128
KUKI - Ukiah, California, USA
Distance from station: W 187mi, 300km
Updated: Thu, 18-Aug-2022 11:56pm PDT
Clear
Clear
 Wind from calm
Wind: Calm
Temperature: 66°F , 19°C
Dew Point: 48°F , 9°C
Humidity: 52%
Barometer: 29.92 inHg , 1013.2 hPa
Clouds: Clear
Visibility: 10 miles , 16 km
2022/08/19 06:56 KUKI 190656Z AUTO 00000KT 10SM CLR 19/09 A2992 RMK AO2 SLP122 T01940089
 
KHJO - Hanford, California, USA
Distance from station: S 188mi, 303km
Updated: Thu, 18-Aug-2022 11:53pm PDT
Clear
Clear
 Wind from NW
Wind: NW 14 mph , 22 km/h
Temperature: 84°F , 29°C
Dew Point: 54°F , 12°C
Humidity: 35%
Barometer: 29.81 inHg , 1009.5 hPa
Clouds: Clear
Visibility: 10 miles , 16 km
2022/08/19 06:53 KHJO 190653Z AUTO 32012KT 10SM CLR 29/12 A2981 RMK AO2 SLP092 T02940117
KNLC - Lemoore Nas/Reev, California, USA
Distance from station: S 188mi, 303km
Updated: Thu, 18-Aug-2022 11:56pm PDT
Clear
Clear
 Wind from NW
Wind: NW 13 mph , 20 km/h
Temperature: 82°F , 28°C
Dew Point: 50°F , 10°C
Humidity: 32%
Barometer: 29.81 inHg , 1009.5 hPa
Clouds: Clear
Visibility: 10 miles , 16 km
2022/08/19 06:56 KNLC 190656Z 32011KT 10SM CLR 28/10 A2981 RMK AO2 SLP092 RH/32 T02780100
 
KVIS - Visalia Muni, California, USA
Distance from station: S 189mi, 304km
Updated: Thu, 18-Aug-2022 11:56pm PDT
Clear
Clear
 Wind from NW
Wind: NW 9 mph , 15 km/h
Temperature: 82°F , 28°C
Heat Index: 82°F , 28°C
Dew Point: 57°F , 14°C
Humidity: 42%
Barometer: 29.82 inHg , 1009.8 hPa
Clouds: Clear
Visibility: 10 miles , 16 km
2022/08/19 06:56 KVIS 190656Z AUTO 31008KT 10SM CLR 28/14 A2982 RMK AO2 SLP098 T02780144
KSNS - Salinas, California, USA
Distance from station: SSW 193mi, 311km
Updated: Fri, 19-Aug-2022 12:04am PDT
Mostly cloudy
Mostly cloudy
 Wind from NNW
Wind: NNW 8 mph , 13 km/h
Temperature: 61°F , 16°C
Dew Point: 55°F , 13°C
Humidity: 83%
Barometer: 29.92 inHg , 1013.2 hPa
Clouds: Mostly cloudy
Visibility: 9 miles , 14 km
Cloud details: Mostly cloudy 300 ft
2022/08/19 07:04 KSNS 190704Z AUTO 33007KT 9SM BKN003 16/13 A2992 RMK AO2 T01560133 TSNO
 
K05U - Eureka, Nevada, USA
Distance from station: ENE 203mi, 326km
Updated: Fri, 05-Aug-2022 4:05pm PDT
NOT Current

 
2022/08/05 23:05 K05U 052305Z AUTO RMK A01 PNO
KP68 - Eureka, Nevada, USA
Distance from station: ENE 203mi, 326km
Updated: Thu, 18-Aug-2022 11:53pm PDT

 Wind from SW
Wind: SW 5 mph , 7 km/h
Temperature: 55°F , 13°C
Dew Point: 46°F , 8°C
Humidity: 72%
Barometer: 30.23 inHg , 1023.7 hPa
2022/08/19 06:53 KP68 190653Z AUTO 22004KT 13/08 A3023 RMK AO1 SLP169 T01280078
 
KMRY - Monterey, California, USA
Distance from station: SW 206mi, 331km
Updated: Thu, 18-Aug-2022 11:54pm PDT
Clear
Clear
 Wind from NW
Wind: NW 3 mph , 6 km/h
Temperature: 59°F , 15°C
Dew Point: 55°F , 13°C
Humidity: 88%
Barometer: 29.94 inHg , 1013.9 hPa
Clouds: Clear
Visibility: 10 miles , 16 km
2022/08/19 06:54 KMRY 190654Z AUTO 31003KT 10SM CLR 15/13 A2994 RMK AO2 SLP148 T01500128
KO54 - Weaverville, California, USA
Distance from station: NW 207mi, 332km
Updated: Wed, 12-Aug-2020 11:15am PDT
NOT Current
Clear
Clear
 Wind from S
Wind: S 3 mph , 6 km/h
Temperature: 77°F , 25°C
Dew Point: 41°F , 5°C
Humidity: 28%
Barometer: 30.01 inHg , 1016.3 hPa
Clouds: Clear
Visibility: 10 miles , 16 km
2020/08/12 18:15 KO54 121815Z AUTO 17003KT 10SM CLR 25/05 A3001 RMK AO1
 
KO86 - Trinity Center, California, USA
Distance from station: NW 207mi, 333km
Updated: Tue, 05-Apr-2022 12:30pm PDT
NOT Current
Clear
Clear
 Wind from calm
Wind: Calm
Temperature: 61°F , 16°C
Dew Point: 39°F , 4°C
Humidity: 45%
Barometer: 32.59 inHg , 1103.6 hPa
Clouds: Clear
Visibility: 10 miles , 16 km
2022/04/05 19:30 KO86 051930Z AUTO 00000KT 10SM CLR 16/04 A3259 RMK A01
KMHS - Mount Shasta, California, USA
Distance from station: NW 209mi, 336km
Updated: Thu, 18-Aug-2022 11:56pm PDT
Clear
Clear
 Wind from calm
Wind: Calm
Temperature: 64°F , 18°C
Dew Point: 52°F , 11°C
Humidity: 64%
Barometer: 30.08 inHg , 1018.6 hPa
Clouds: Clear
Visibility: 10 miles , 16 km
2022/08/19 06:56 KMHS 190656Z AUTO 00000KT 10SM CLR 18/11 A3008 RMK AO2 SLP172 T01780106
 
KPTV - Porterville, California, USA
Distance from station: S 212mi, 341km
Updated: Thu, 18-Aug-2022 11:56pm PDT
Clear
Clear
 Wind from S
Wind: S 5 mph , 7 km/h
Temperature: 79°F , 26°C
Dew Point: 57°F , 14°C
Humidity: 48%
Barometer: 29.84 inHg , 1010.5 hPa
Clouds: Clear
Visibility: 10 miles , 16 km
2022/08/19 06:56 KPTV 190656Z AUTO 17004KT 10SM CLR 26/14 A2984 RMK AO2 SLP098 T02610144 404000211
KLKV - Lakeview, Oregon, USA
Distance from station: N 219mi, 353km
Updated: Thu, 18-Aug-2022 11:53pm PDT
Mostly cloudy
Mostly cloudy
 Wind from calm
Wind: Calm
Temperature: 55°F , 13°C
Dew Point: 52°F , 11°C
Humidity: 88%
Barometer: 30.18 inHg , 1022 hPa
Clouds: Mostly cloudy
Visibility: 10 miles , 16 km
Cloud details: Mostly cloudy 9500 ft
2022/08/19 06:53 KLKV 190653Z AUTO 00000KT 10SM BKN095 13/11 A3018 RMK AO2 SLP191 T01330106
 
KSIY - Montague/Siskiyo, California, USA
Distance from station: NW 237mi, 382km
Updated: Thu, 18-Aug-2022 11:53pm PDT
Clear
Clear
 Wind from N
Wind: N 3 mph , 6 km/h
Temperature: 72°F , 22°C
Dew Point: 46°F , 8°C
Humidity: 41%
Barometer: 30.03 inHg , 1016.9 hPa
Clouds: Clear
Visibility: 10 miles , 16 km
2022/08/19 06:53 KSIY 190653Z AUTO 36003KT 10SM CLR 22/08 A3003 RMK AO2 SLP153 T02170078
KPRB - Paso Robles, California, USA
Distance from station: SSW 238mi, 383km
Updated: Thu, 18-Aug-2022 11:53pm PDT
Clear
Clear
 Wind from WNW
Wind: WNW 6 mph , 9 km/h
Temperature: 66°F , 19°C
Dew Point: 46°F , 8°C
Humidity: 49%
Barometer: 29.91 inHg , 1012.9 hPa
Clouds: Clear
Visibility: 10 miles , 16 km
2022/08/19 06:53 KPRB 190653Z AUTO 29005KT 10SM CLR 19/08 A2991 RMK AO2 SLP118 T01940083
 
KLMT - Klamath Falls, Oregon, USA
Distance from station: NNW 239mi, 385km
Updated: Thu, 18-Aug-2022 11:53pm PDT
Mostly cloudy
Mostly cloudy
 Wind from E
Wind: E 5 mph , 7 km/h
Temperature: 63°F , 17°C
Dew Point: 54°F , 12°C
Humidity: 73%
Barometer: 30.12 inHg , 1020 hPa
Clouds: Mostly cloudy
Visibility: 10 miles , 16 km
Cloud details: Mostly cloudy 11000 ft
2022/08/19 06:53 KLMT 190653Z AUTO 10004KT 10SM BKN110 17/12 A3012 RMK AO2 SLP162 T01720117
KEKO - Elko, Nevada, USA
Distance from station: ENE 242mi, 390km
Updated: Thu, 18-Aug-2022 11:56pm PDT
Clear
Clear
 Wind from calm
Wind: Calm
Temperature: 55°F , 13°C
Dew Point: 54°F , 12°C
Humidity: 94%
Barometer: 30.16 inHg , 1021.3 hPa
Clouds: Clear
Visibility: 10 miles , 16 km
2022/08/19 06:56 KEKO 190656Z AUTO 00000KT 10SM CLR 13/12 A3016 RMK AO2 SLP173 T01280122
 
KBFL - Bakersfield, California, USA
Distance from station: S 252mi, 405km
Updated: Thu, 18-Aug-2022 11:54pm PDT
Clear
Clear
 Wind from calm
Wind: Calm
Temperature: 86°F , 30°C
Dew Point: 57°F , 14°C
Humidity: 38%
Barometer: 29.83 inHg , 1010.2 hPa
Clouds: Clear
Visibility: 7 miles , 11 km
2022/08/19 06:54 KBFL 190654Z AUTO 00000KT 7SM CLR 30/14 A2983 RMK AO2 SLP094 T03000139 TSNO
KFOT - Fortuna, California, USA
Distance from station: WNW 256mi, 413km
Updated: Fri, 19-Aug-2022 12:35am PDT
Overcast
Overcast
 Wind from WNW
Wind: WNW 3 mph , 6 km/h
Temperature: 57°F , 14°C
Dew Point: 55°F , 13°C
Humidity: 94%
Barometer: 30.02 inHg , 1016.6 hPa
Clouds: Overcast
Visibility: 10 miles , 16 km
Cloud details: Overcast 400 ft
2022/08/19 07:35 KFOT 190735Z AUTO 29003KT 10SM OVC004 14/13 A3002 RMK AO1
 
KNID - China Lake (naf), California, USA
Distance from station: SSE 259mi, 417km
Updated: Thu, 18-Aug-2022 11:56pm PDT
Clear
Clear
 Wind from SSW
Wind: SSW 9 mph , 15 km/h
Temperature: 86°F , 30°C
Dew Point: 37°F , 3°C
Humidity: 18%
Barometer: 29.85 inHg , 1010.8 hPa
Clouds: Clear
Visibility: 10 miles , 16 km
2022/08/19 06:56 KNID 190656Z AUTO 21008KT 10SM CLR 30/03 A2985 RMK AO2 SLP079 T03000028 $
KDRA - Desert R/Mercury, Nevada, USA
Distance from station: SE 262mi, 421km
Updated: Thu, 18-Aug-2022 11:53pm PDT
Clear
Clear
 Wind from ESE
Wind: ESE 18 mph , 30 km/h, Gust: 29 mph , 46 km/h
Temperature: 77°F , 25°C
Dew Point: 61°F , 16°C
Humidity: 57%
Barometer: 29.96 inHg , 1014.6 hPa
Clouds: Clear
Visibility: 10 miles , 16 km
2022/08/19 06:53 KDRA 190653Z AUTO 11016G25KT 10SM CLR 25/16 A2996 RMK AO2 WSHFT 0540 SLP092 T02500161
 
KELY - Ely, Nevada, USA
Distance from station: E 262mi, 421km
Updated: Thu, 18-Aug-2022 11:53pm PDT
Clear
Clear
 Wind from SSE
Wind: SSE 9 mph , 15 km/h
Temperature: 61°F , 16°C
Dew Point: 55°F , 13°C
Humidity: 83%
Barometer: 30.24 inHg , 1024 hPa
Clouds: Clear
Visibility: 10 miles , 16 km
2022/08/19 06:53 KELY 190653Z AUTO 15008KT 10SM CLR 16/13 A3024 RMK AO2 SLP131 T01560133 403000128
KREO - Rome, Oregon, USA
Distance from station: NNE 263mi, 424km
Updated: Thu, 18-Aug-2022 11:52pm PDT

 Wind from SSW
Wind: SSW 8 mph , 13 km/h
Temperature: 72°F , 22°C
Dew Point: 54°F , 12°C
Humidity: 53%
Barometer: 30.08 inHg , 1018.6 hPa
2022/08/19 06:52 KREO 190652Z AUTO 21007KT 22/12 A3008 RMK AO1 SLP139 T02170117 403280167
 
KACV - Arcata/Eureka, California, USA
Distance from station: WNW 268mi, 431km
Updated: Fri, 19-Aug-2022 12:32am PDT
Mist, Overcast
Mist, Overcast
 Wind from calm
Wind: Calm
Temperature: 55°F , 13°C
Dew Point: 54°F , 12°C
Humidity: 94%
Barometer: 30.02 inHg , 1016.6 hPa
Summary: Mist
Clouds: Overcast
Visibility: 3 miles , 5 km
Cloud details: Overcast 200 ft
2022/08/19 07:32 KACV 190732Z AUTO 00000KT 3SM BR OVC002 13/12 A3002 RMK AO2 T01280122
KSBP - San Luis Obispo, California, USA
Distance from station: S 268mi, 431km
Updated: Thu, 18-Aug-2022 11:56pm PDT
Overcast
Overcast
 Wind from WNW
Wind: WNW 5 mph , 7 km/h
Temperature: 55°F , 13°C
Dew Point: 55°F , 13°C
Humidity: 100%
Barometer: 29.92 inHg , 1013.2 hPa
Clouds: Overcast
Visibility: 10 miles , 16 km
Cloud details: Overcast 500 ft
2022/08/19 06:56 KSBP 190656Z AUTO 29004KT 10SM OVC005 13/13 A2992 RMK AO2 SLP129 T01280128
 
KINS - Indian Springs, Nevada, USA
Distance from station: SE 279mi, 449km
Updated: Thu, 18-Aug-2022 11:58pm PDT
Partly cloudy
Partly cloudy
 Wind from E
Wind: E 12 mph , 19 km/h
Temperature: 79°F , 26°C
Dew Point: 59°F , 15°C
Humidity: 51%
Barometer: 29.98 inHg , 1015.2 hPa
Clouds: Partly cloudy
Visibility: 10 miles , 16 km
Cloud details: Partly cloudy 15000 ft
Partly cloudy 18000 ft
2022/08/19 06:58 KINS 190658Z AUTO 10010KT 10SM SCT150 SCT180 26/15 A2998 RMK AO2 SLP099 T02600148 $
KTSP - Tehachapi, California, USA
Distance from station: SSE 279mi, 449km
Updated: Fri, 19-Aug-2022 12:35am PDT
Clear
Clear
 Wind from W
Wind: W 10 mph , 17 km/h
Temperature: 72°F , 22°C
Dew Point: 45°F , 7°C
Humidity: 38%
Barometer: 30.09 inHg , 1019 hPa
Clouds: Clear
Visibility: 10 miles , 16 km
2022/08/19 07:35 KTSP 190735Z AUTO 27009KT 10SM CLR 22/07 A3009 RMK AO2
 
KMFR - Medford, Oregon, USA
Distance from station: NW 284mi, 457km
Updated: Thu, 18-Aug-2022 11:53pm PDT
Clear
Clear
 Wind from ENE
Wind: ENE 3 mph , 6 km/h
Temperature: 75°F , 24°C
Dew Point: 54°F , 12°C
Humidity: 47%
Barometer: 29.93 inHg , 1013.5 hPa
Clouds: Clear
Visibility: 10 miles , 16 km
2022/08/19 06:53 KMFR 190653Z AUTO 07003KT 10SM CLR 24/12 A2993 RMK AO2 SLP122 T02390122
KMHV - Mojave, California, USA
Distance from station: SSE 288mi, 463km
Updated: Fri, 19-Aug-2022 12:20am PDT
Clear
Clear
 Wind from WNW
Wind: WNW 17 mph , 28 km/h, Gust: 35 mph , 56 km/h
Temperature: 84°F , 29°C
Dew Point: 43°F , 6°C
Humidity: 23%
Barometer: 29.92 inHg , 1013.2 hPa
Clouds: Clear
Visibility: 10 miles , 16 km
2022/08/19 07:20 KMHV 190720Z AUTO 30015G30KT 10SM CLR 29/06 A2992 RMK A01
 
KSMX - Santa Maria, California, USA
Distance from station: S 289mi, 465km
Updated: Fri, 19-Aug-2022 12:16am PDT
Mist, Overcast
Mist, Overcast
 Wind from W
Wind: W 8 mph , 13 km/h
Temperature: 54°F , 12°C
Dew Point: 54°F , 12°C
Humidity: 100%
Barometer: 29.92 inHg , 1013.2 hPa
Summary: Mist
Clouds: Overcast
Visibility: 3/4 mile , 1.2 km
Cloud details: Overcast 200 ft
2022/08/19 07:16 KSMX 190716Z AUTO 28007KT 3/4SM R12/3000VP6000FT BR VV002 12/12 A2992 RMK AO2 T01220117
K9L2 - Edwards N-Aux, California, USA
Distance from station: SSE 299mi, 482km
Updated: Thu, 18-Aug-2022 11:58pm PDT
Clear
Clear
 Wind from S
Wind: S 13 mph , 20 km/h
Temperature: 81°F , 27°C
Dew Point: 41°F , 5°C
Humidity: 24%
Barometer: 29.89 inHg , 1012.2 hPa
Clouds: Clear
Visibility: 10 miles , 16 km
2022/08/19 06:58 K9L2 190658Z AUTO 17011KT 10SM CLR 27/05 A2989 RMK AO2 SLP090 T02680051 $
Honor Flight NV - Honoring all of our Veterans CoCoRaHS (Community Collaborative Rain, Hail and Snow Network) Station Number: NV-DG-2 Live Lightning Map - USA Reno Skywarn Spotter ID: DO21 AlertID Southwestern Weather Network Carson Valley Community Food Closet - providing for the needs of our community



(Click on the Flag Counter logo below for details in new browser tab)
Flag Counter